createdAt,value
2022-08-05T00:02:17.792Z,6.00
2022-08-05T00:07:26.840Z,6.70
2022-08-05T00:12:17.705Z,6.70
2022-08-05T00:17:19.369Z,6.40
2022-08-05T00:22:17.876Z,6.40
2022-08-05T00:27:17.790Z,7.40
2022-08-05T00:32:17.716Z,7.40
2022-08-05T00:37:17.787Z,6.30
2022-08-05T00:42:31.574Z,6.30
2022-08-05T00:47:17.779Z,6.20
2022-08-05T00:52:18.114Z,6.20
2022-08-05T00:57:17.769Z,6.40
2022-08-05T01:02:17.742Z,6.40
2022-08-05T01:07:17.870Z,8.10
2022-08-05T01:12:18.703Z,8.10
2022-08-05T01:17:17.798Z,5.90
2022-08-05T01:22:18.894Z,5.90
2022-08-05T01:27:19.602Z,6.80
2022-08-05T01:32:18.419Z,6.80
2022-08-05T01:37:24.476Z,6.20
2022-08-05T01:42:17.760Z,6.20
2022-08-05T01:47:17.792Z,6.40
2022-08-05T01:52:18.225Z,6.40
2022-08-05T01:58:12.869Z,6.20
2022-08-05T02:02:17.882Z,6.20
2022-08-05T02:07:22.035Z,6.30
2022-08-05T02:12:17.785Z,6.30
2022-08-05T02:17:29.876Z,5.60
2022-08-05T02:22:26.721Z,5.60
2022-08-05T02:27:17.808Z,6.10
2022-08-05T02:32:23.748Z,6.10
2022-08-05T02:37:17.822Z,5.60
2022-08-05T02:42:26.018Z,5.60
2022-08-05T02:47:17.847Z,6.10
2022-08-05T02:52:29.621Z,6.10
2022-08-05T02:58:09.414Z,6.20
2022-08-05T03:02:17.790Z,6.20
2022-08-05T03:07:40.407Z,5.70
2022-08-05T03:12:17.807Z,5.70
2022-08-05T03:17:17.839Z,5.90
2022-08-05T03:22:19.046Z,5.90
2022-08-05T03:27:18.187Z,6.00
2022-08-05T03:32:17.814Z,6.00
2022-08-05T03:37:17.855Z,6.40
2022-08-05T03:42:17.812Z,6.40
2022-08-05T03:47:17.854Z,6.10
2022-08-05T03:52:48.461Z,6.10
2022-08-05T03:57:18.106Z,5.70
2022-08-05T04:02:38.843Z,5.70
2022-08-05T04:07:17.873Z,6.20
2022-08-05T04:12:24.709Z,6.20
2022-08-05T04:17:17.898Z,6.10
2022-08-05T04:22:20.519Z,6.10
2022-08-05T04:27:17.891Z,6.00
2022-08-05T04:32:20.090Z,6.00
2022-08-05T04:37:17.909Z,6.00
2022-08-05T04:42:17.837Z,6.00
2022-08-05T04:47:20.301Z,5.60
2022-08-05T04:52:18.594Z,5.60
2022-08-05T04:57:17.901Z,5.50
2022-08-05T05:02:36.407Z,5.50
2022-08-05T05:07:17.922Z,6.00
2022-08-05T05:12:17.857Z,6.00
2022-08-05T05:17:23.330Z,6.10
2022-08-05T05:22:23.870Z,6.10
2022-08-05T05:27:17.893Z,9.80
2022-08-05T05:32:18.367Z,9.80
2022-08-05T05:37:17.957Z,5.60
2022-08-05T05:42:17.899Z,5.60
2022-08-05T05:47:30.621Z,5.70
2022-08-05T05:52:29.830Z,5.70
2022-08-05T05:57:19.380Z,5.00
2022-08-05T06:02:32.516Z,5.00
2022-08-05T06:07:17.954Z,4.90
2022-08-05T06:12:17.890Z,4.90
2022-08-05T06:17:21.975Z,5.50
2022-08-05T06:22:17.926Z,5.50
2022-08-05T06:28:10.813Z,5.70
2022-08-05T06:32:26.090Z,5.70
2022-08-05T06:37:17.957Z,5.90
2022-08-05T06:42:17.914Z,5.90
2022-08-05T06:47:30.343Z,4.40
2022-08-05T06:52:36.977Z,4.40
2022-08-05T06:57:57.534Z,4.60
2022-08-05T07:02:17.928Z,4.60
2022-08-05T07:07:24.190Z,5.70
2022-08-05T07:12:17.937Z,5.70
2022-08-05T07:18:02.048Z,5.60
2022-08-05T07:22:17.996Z,5.60
2022-08-05T07:27:17.979Z,5.50
2022-08-05T07:32:18.282Z,5.50
2022-08-05T07:37:17.992Z,6.40
2022-08-05T07:42:18.046Z,6.40
2022-08-05T07:47:18.038Z,5.30
2022-08-05T07:52:17.993Z,5.30
2022-08-05T07:57:58.857Z,5.90
2022-08-05T08:02:18.255Z,5.90
2022-08-05T08:07:22.131Z,6.90
2022-08-05T08:12:35.259Z,6.90
2022-08-05T08:17:18.042Z,4.50
2022-08-05T08:22:18.001Z,4.50
2022-08-05T08:27:18.572Z,3.90
2022-08-05T08:32:18.549Z,3.90
2022-08-05T08:37:20.464Z,5.50
2022-08-05T08:42:34.571Z,5.50
2022-08-05T08:47:47.607Z,6.50
2022-08-05T08:52:18.027Z,6.50
2022-08-05T08:57:18.051Z,6.30
2022-08-05T09:02:18.125Z,6.30
2022-08-05T09:07:19.676Z,5.30
2022-08-05T09:12:20.576Z,5.30
2022-08-05T09:17:42.986Z,6.30
2022-08-05T09:22:31.156Z,6.30
2022-08-05T09:27:18.704Z,5.50
2022-08-05T09:32:40.193Z,5.50
2022-08-05T09:37:18.055Z,5.10
2022-08-05T09:42:23.162Z,5.10
2022-08-05T09:47:20.445Z,5.80
2022-08-05T09:52:18.017Z,5.80
2022-08-05T09:57:23.469Z,5.80
2022-08-05T10:02:18.073Z,5.20
2022-08-05T10:07:20.423Z,5.20
2022-08-05T10:12:30.547Z,6.90
2022-08-05T10:22:29.774Z,5.00
2022-08-05T10:27:18.198Z,5.00
2022-08-05T10:33:02.203Z,5.70
2022-08-05T10:37:18.066Z,5.70
2022-08-05T10:42:18.503Z,5.70
2022-08-05T10:47:27.137Z,5.70
2022-08-05T10:52:18.115Z,5.50
2022-08-05T10:57:18.094Z,5.50
2022-08-05T11:02:38.209Z,5.50
2022-08-05T11:07:18.054Z,5.50
2022-08-05T11:12:18.106Z,5.00
2022-08-05T11:17:57.181Z,5.00
2022-08-05T11:22:18.133Z,4.50
2022-08-05T11:27:18.111Z,4.50
2022-08-05T11:32:18.094Z,5.30
2022-08-05T11:38:29.336Z,5.30
2022-08-05T11:42:18.656Z,5.60
2022-08-05T11:47:21.821Z,5.60
2022-08-05T11:52:18.119Z,5.40
2022-08-05T11:57:25.847Z,5.40
2022-08-05T12:02:23.912Z,4.70
2022-08-05T12:07:18.101Z,4.70
2022-08-05T12:12:18.145Z,5.90
2022-08-05T12:18:03.596Z,5.90
2022-08-05T12:22:20.126Z,5.50
2022-08-05T12:27:32.539Z,5.50
2022-08-05T12:32:18.145Z,4.60
2022-08-05T12:37:21.577Z,4.60
2022-08-05T12:42:18.159Z,4.90
2022-08-05T12:47:18.229Z,4.90
2022-08-05T12:52:25.378Z,5.00
2022-08-05T12:57:18.194Z,5.00
2022-08-05T13:02:18.230Z,5.70
2022-08-05T13:07:26.934Z,5.70
2022-08-05T13:12:18.176Z,5.40
2022-08-05T13:22:28.010Z,5.70
2022-08-05T13:27:23.067Z,5.70
2022-08-05T13:32:21.741Z,5.00
2022-08-05T13:37:34.374Z,5.00
2022-08-05T13:42:18.277Z,5.40
2022-08-05T13:47:35.501Z,5.40
2022-08-05T13:52:18.190Z,5.50
2022-08-05T13:57:18.226Z,5.50
2022-08-05T14:02:19.962Z,5.20
2022-08-05T14:07:26.466Z,5.20
2022-08-05T14:12:32.722Z,5.40
2022-08-05T14:17:18.166Z,5.40
2022-08-05T14:22:18.206Z,5.10
2022-08-05T14:27:18.775Z,5.10
2022-08-05T14:32:27.064Z,4.30
2022-08-05T14:37:18.175Z,4.30
2022-08-05T14:42:20.837Z,4.90
2022-08-05T14:48:02.697Z,4.90
2022-08-05T14:52:36.265Z,5.10
2022-08-05T14:57:18.229Z,5.10
2022-08-05T15:02:18.333Z,6.20
2022-08-05T15:08:06.286Z,6.20
2022-08-05T15:12:18.260Z,5.80
2022-08-05T15:17:46.721Z,5.80
2022-08-05T15:22:18.236Z,5.30
2022-08-05T15:27:18.243Z,5.30
2022-08-05T15:32:18.267Z,5.40
2022-08-05T15:38:08.418Z,5.40
2022-08-05T15:42:54.164Z,4.70
2022-08-05T15:47:18.223Z,4.70
2022-08-05T15:52:29.126Z,5.10
2022-08-05T15:57:18.276Z,5.10
2022-08-05T16:02:25.292Z,5.10
2022-08-05T16:07:18.243Z,5.10
2022-08-05T16:12:20.001Z,5.20
2022-08-05T16:17:18.265Z,5.20
2022-08-05T16:22:18.278Z,6.40
2022-08-05T16:27:18.294Z,6.40
2022-08-05T16:32:18.284Z,5.00
2022-08-05T16:38:16.315Z,5.00
2022-08-05T16:42:27.925Z,5.20
2022-08-05T16:47:28.695Z,5.20
2022-08-05T16:52:18.287Z,4.40
2022-08-05T16:57:22.333Z,4.40
2022-08-05T17:02:18.493Z,5.30
2022-08-05T17:07:39.172Z,5.30
2022-08-05T17:12:18.328Z,5.40
2022-08-05T17:17:19.679Z,5.40
2022-08-05T17:22:25.546Z,5.00
2022-08-05T17:27:18.315Z,5.00
2022-08-05T17:32:18.548Z,4.00
2022-08-05T17:37:39.255Z,4.00
2022-08-05T17:42:22.000Z,4.00
2022-08-05T17:47:18.313Z,4.00
2022-08-05T17:52:18.444Z,5.20
2022-08-05T17:57:18.445Z,5.20
2022-08-05T18:02:18.321Z,5.90
2022-08-05T18:07:18.306Z,5.90
2022-08-05T18:12:24.123Z,5.10
2022-08-05T18:18:00.202Z,5.10
2022-08-05T18:22:18.710Z,6.00
2022-08-05T18:27:19.161Z,6.00
2022-08-05T18:32:18.349Z,5.40
2022-08-05T18:37:33.508Z,5.40
2022-08-05T18:42:18.430Z,5.90
2022-08-05T18:47:18.420Z,5.90
2022-08-05T18:52:18.431Z,5.20
2022-08-05T18:57:18.414Z,5.20
2022-08-05T19:02:38.125Z,5.90
2022-08-05T19:07:18.458Z,5.90
2022-08-05T19:12:18.575Z,5.50
2022-08-05T19:17:18.495Z,5.50
2022-08-05T19:22:18.649Z,6.20
2022-08-05T19:27:18.543Z,6.20
2022-08-05T19:32:18.711Z,7.90
2022-08-05T19:37:18.405Z,7.90
2022-08-05T19:42:18.625Z,6.50
2022-08-05T19:47:18.547Z,6.50
2022-08-05T19:52:30.896Z,6.40
2022-08-05T19:57:18.743Z,6.40
2022-08-05T20:02:18.678Z,7.20
2022-08-05T20:07:45.888Z,7.20
2022-08-05T20:12:18.626Z,8.70
2022-08-05T20:17:18.537Z,8.70
2022-08-05T20:22:18.738Z,7.60
2022-08-05T20:27:18.466Z,7.60
2022-08-05T20:32:18.550Z,6.50
2022-08-05T20:38:04.811Z,6.50
2022-08-05T20:42:21.728Z,8.80
2022-08-05T20:47:18.405Z,8.80
2022-08-05T20:52:18.533Z,7.70
2022-08-05T20:57:42.156Z,7.70
2022-08-05T21:02:18.513Z,6.80
2022-08-05T21:07:18.406Z,6.80
2022-08-05T21:12:18.555Z,6.30
2022-08-05T21:17:18.436Z,6.30
2022-08-05T21:22:21.760Z,7.40
2022-08-05T21:27:18.465Z,7.40
2022-08-05T21:32:20.130Z,6.90
2022-08-05T21:37:18.434Z,6.90
2022-08-05T21:42:30.679Z,8.50
2022-08-05T21:47:56.477Z,8.50
2022-08-05T21:52:28.184Z,7.80
2022-08-05T21:57:32.369Z,7.80
2022-08-05T22:02:18.550Z,8.50
2022-08-05T22:12:18.632Z,7.70
2022-08-05T22:17:18.462Z,7.70
2022-08-05T22:22:22.804Z,6.80
2022-08-05T22:27:18.493Z,6.80
2022-08-05T22:32:18.490Z,6.80
2022-08-05T22:37:18.462Z,6.80
2022-08-05T22:42:25.280Z,7.50
2022-08-05T22:47:28.897Z,7.50
2022-08-05T22:57:18.635Z,7.20
2022-08-05T23:02:28.928Z,8.60
2022-08-05T23:07:18.565Z,8.60
2022-08-05T23:12:18.585Z,8.00
2022-08-05T23:17:23.934Z,8.00
2022-08-05T23:22:19.294Z,7.50
2022-08-05T23:27:18.541Z,7.50
2022-08-05T23:32:22.680Z,6.40
2022-08-05T23:37:18.512Z,6.40
2022-08-05T23:42:29.522Z,6.90
2022-08-05T23:47:18.527Z,6.90
2022-08-05T23:52:18.512Z,7.30
2022-08-05T23:57:18.557Z,7.30
